Highland Lakes, NJ

8:54 AM EDT on September 22, 2014 (GMT -0400)
Andover | Change Station
CLOSE
Current Station
Airport
Location: Andover,
Elevation: 581 ft
Nearby Weather Stations

Elev 581 ft 41.01 °N, 74.74 °W | Updated 1 hour ago

Clear
Clear
59 °F
Feels Like 59 °F
N
4
Wind Variable Wind from Variable
Gusts 15 mph

Today
High -- | Low -- °F
--% Chance of Precip.
Yesterday
High -- | Low -- °F
Precip. -- in
6:45 AM 6:55 PM
Waning Crescent, 3% visible
Pressure 29.82 in
Visibility -9999.0 miles
Clouds
Dew Point 52 °F
Humidity 78%
Rainfall 0.01 in
Snow Depth Not available.
UV Not available.
Pollen 4.00 out of 12
Air Quality Not available.
Flu Activity Not available.
METAR K12N 221154Z AUTO VRB03KT 15/11 A2983 RMK AO1 SLP098 70002 T01500111 10161 20133 53032

More Conditions Fewer Conditions

Pressure 29.82 in
Visibility -9999.0 miles
Clouds
Dew Point 52 °F
Humidity 78%
Rainfall 0.01 in
Snow Depth Not available.
UV Not available.
Pollen 4.00 out of 12
Air Quality Not available.
Flu Activity Not available.
METAR K12N 221154Z AUTO VRB03KT 15/11 A2983 RMK AO1 SLP098 70002 T01500111 10161 20133 53032

More Conditions Fewer Conditions

10-Day Weather Forecast

Almanac

Astronomy

Sep. 22, 2014 Rise Set
Actual Time 6:45 AM EDT 6:55 PM EDT
Civil Twilight 6:17 AM EDT 7:22 PM EDT
Nautical Twilight 5:45 AM EDT 7:54 PM EDT
Astronomical Twilight 5:12 AM EDT 8:27 PM EDT
Moon 5:10 AM EDT 6:01 PM EDT
Length of Visible Light 13h 04m
Length of Day
12h 09m
Tomorrow will be 2m 44s shorter.
Waning Crescent, 3% of the Moon is Illuminated
Today
Waning Crescent
Sep 24
New
Oct 1
First Quarter
Oct 8
Full
Oct 15
Last Quarter

Today's Extremes

State Highs State Lows

Community

WunderPhotos

Upload Photos

1,755,419 photos uploaded!

Nearby

Snow Depth

Station Depth Elevation
No new snow has been reported.

Earthquake Activity

City Distance Mag. Time & Date
No recent earthquake activity has been reported nearby.
Minimum magnitude displayed is 2.5.

Coastal Water Temperatures

Place Temperature
No Stations Reporting

Nearby Weather Stations